sensor_id;sensor_type;location;lat;lon;timestamp;P1;durP1;ratioP1;P2;durP2;ratioP2
9775;SDS011;4927;52.472;13.108;2022-09-27T00:04:47;1.95;;;1.80;;
9775;SDS011;4927;52.472;13.108;2022-09-27T00:09:53;1.50;;;1.40;;
9775;SDS011;4927;52.472;13.108;2022-09-27T00:14:58;2.10;;;1.77;;
9775;SDS011;4927;52.472;13.108;2022-09-27T00:20:05;1.50;;;1.50;;
9775;SDS011;4927;52.472;13.108;2022-09-27T00:25:11;1.75;;;1.65;;
9775;SDS011;4927;52.472;13.108;2022-09-27T00:30:17;1.80;;;1.70;;
9775;SDS011;4927;52.472;13.108;2022-09-27T00:35:24;1.90;;;1.80;;
9775;SDS011;4927;52.472;13.108;2022-09-27T00:40:30;1.83;;;1.60;;
9775;SDS011;4927;52.472;13.108;2022-09-27T00:45:36;1.80;;;1.70;;
9775;SDS011;4927;52.472;13.108;2022-09-27T00:50:47;1.90;;;1.80;;
9775;SDS011;4927;52.472;13.108;2022-09-27T00:55:56;1.62;;;1.52;;
9775;SDS011;4927;52.472;13.108;2022-09-27T01:01:06;3.10;;;1.60;;
9775;SDS011;4927;52.472;13.108;2022-09-27T01:06:11;1.70;;;1.60;;
9775;SDS011;4927;52.472;13.108;2022-09-27T01:11:24;1.60;;;1.50;;
9775;SDS011;4927;52.472;13.108;2022-09-27T01:16:43;2.20;;;1.85;;
9775;SDS011;4927;52.472;13.108;2022-09-27T01:21:50;1.30;;;1.30;;
9775;SDS011;4927;52.472;13.108;2022-09-27T01:27:14;1.30;;;1.30;;
9775;SDS011;4927;52.472;13.108;2022-09-27T01:32:37;1.50;;;1.40;;
9775;SDS011;4927;52.472;13.108;2022-09-27T01:37:52;1.25;;;1.20;;
9775;SDS011;4927;52.472;13.108;2022-09-27T01:43:00;3.80;;;1.33;;
9775;SDS011;4927;52.472;13.108;2022-09-27T01:48:07;1.20;;;1.20;;
9775;SDS011;4927;52.472;13.108;2022-09-27T01:53:15;1.20;;;1.20;;
9775;SDS011;4927;52.472;13.108;2022-09-27T01:58:25;1.20;;;1.20;;
9775;SDS011;4927;52.472;13.108;2022-09-27T02:03:34;1.48;;;1.37;;
9775;SDS011;4927;52.472;13.108;2022-09-27T02:08:42;1.15;;;1.15;;
9775;SDS011;4927;52.472;13.108;2022-09-27T02:13:53;1.80;;;1.30;;
9775;SDS011;4927;52.472;13.108;2022-09-27T02:24:14;1.33;;;1.23;;
9775;SDS011;4927;52.472;13.108;2022-09-27T02:29:22;1.30;;;1.30;;
9775;SDS011;4927;52.472;13.108;2022-09-27T02:34:28;1.45;;;1.35;;
9775;SDS011;4927;52.472;13.108;2022-09-27T02:39:34;1.50;;;1.40;;
9775;SDS011;4927;52.472;13.108;2022-09-27T02:44:40;1.52;;;1.42;;
9775;SDS011;4927;52.472;13.108;2022-09-27T02:55:18;1.20;;;1.20;;
9775;SDS011;4927;52.472;13.108;2022-09-27T03:00:26;1.67;;;1.00;;
9775;SDS011;4927;52.472;13.108;2022-09-27T03:05:32;1.60;;;1.60;;
9775;SDS011;4927;52.472;13.108;2022-09-27T03:10:37;1.20;;;1.20;;
9775;SDS011;4927;52.472;13.108;2022-09-27T03:15:45;1.60;;;1.50;;
9775;SDS011;4927;52.472;13.108;2022-09-27T03:20:51;1.50;;;1.40;;
9775;SDS011;4927;52.472;13.108;2022-09-27T03:25:58;1.33;;;1.23;;
9775;SDS011;4927;52.472;13.108;2022-09-27T03:31:05;1.60;;;1.50;;
9775;SDS011;4927;52.472;13.108;2022-09-27T03:36:12;1.70;;;1.60;;
9775;SDS011;4927;52.472;13.108;2022-09-27T03:41:18;1.60;;;1.50;;
9775;SDS011;4927;52.472;13.108;2022-09-27T03:46:25;1.90;;;1.80;;
9775;SDS011;4927;52.472;13.108;2022-09-27T03:51:31;4.45;;;1.70;;
9775;SDS011;4927;52.472;13.108;2022-09-27T03:56:37;1.60;;;1.50;;
9775;SDS011;4927;52.472;13.108;2022-09-27T04:01:41;1.50;;;1.50;;
9775;SDS011;4927;52.472;13.108;2022-09-27T04:06:48;1.60;;;1.50;;
9775;SDS011;4927;52.472;13.108;2022-09-27T04:11:54;1.87;;;1.77;;
9775;SDS011;4927;52.472;13.108;2022-09-27T04:17:00;1.65;;;1.65;;
9775;SDS011;4927;52.472;13.108;2022-09-27T04:22:07;1.85;;;1.75;;
9775;SDS011;4927;52.472;13.108;2022-09-27T04:27:14;1.70;;;1.70;;
9775;SDS011;4927;52.472;13.108;2022-09-27T04:32:20;1.95;;;1.85;;
9775;SDS011;4927;52.472;13.108;2022-09-27T04:37:26;2.08;;;1.83;;
9775;SDS011;4927;52.472;13.108;2022-09-27T04:42:33;3.85;;;1.80;;
9775;SDS011;4927;52.472;13.108;2022-09-27T04:47:45;1.87;;;1.77;;
9775;SDS011;4927;52.472;13.108;2022-09-27T04:52:51;1.90;;;1.80;;
9775;SDS011;4927;52.472;13.108;2022-09-27T04:57:57;2.00;;;1.90;;
9775;SDS011;4927;52.472;13.108;2022-09-27T05:03:01;2.00;;;1.90;;
9775;SDS011;4927;52.472;13.108;2022-09-27T05:08:07;2.10;;;2.00;;
9775;SDS011;4927;52.472;13.108;2022-09-27T05:13:14;2.15;;;2.05;;
9775;SDS011;4927;52.472;13.108;2022-09-27T05:18:20;2.40;;;2.00;;
9775;SDS011;4927;52.472;13.108;2022-09-27T05:23:26;2.40;;;2.30;;
9775;SDS011;4927;52.472;13.108;2022-09-27T05:28:33;2.10;;;2.00;;
9775;SDS011;4927;52.472;13.108;2022-09-27T05:33:41;2.55;;;2.45;;
9775;SDS011;4927;52.472;13.108;2022-09-27T05:38:48;2.40;;;2.30;;
9775;SDS011;4927;52.472;13.108;2022-09-27T05:43:54;2.12;;;2.03;;
9775;SDS011;4927;52.472;13.108;2022-09-27T05:49:00;2.70;;;2.30;;
9775;SDS011;4927;52.472;13.108;2022-09-27T05:54:07;2.50;;;2.30;;
9775;SDS011;4927;52.472;13.108;2022-09-27T05:59:13;2.42;;;2.33;;
9775;SDS011;4927;52.472;13.108;2022-09-27T06:04:20;2.30;;;2.20;;
9775;SDS011;4927;52.472;13.108;2022-09-27T06:09:26;2.85;;;2.65;;
9775;SDS011;4927;52.472;13.108;2022-09-27T06:14:32;3.12;;;2.92;;
9775;SDS011;4927;52.472;13.108;2022-09-27T06:19:39;2.28;;;2.17;;
9775;SDS011;4927;52.472;13.108;2022-09-27T06:24:45;2.12;;;2.03;;
9775;SDS011;4927;52.472;13.108;2022-09-27T06:29:53;2.42;;;2.22;;
9775;SDS011;4927;52.472;13.108;2022-09-27T06:34:59;2.33;;;2.20;;
9775;SDS011;4927;52.472;13.108;2022-09-27T06:40:04;2.40;;;2.20;;
9775;SDS011;4927;52.472;13.108;2022-09-27T06:45:09;2.40;;;2.20;;
9775;SDS011;4927;52.472;13.108;2022-09-27T06:50:15;2.30;;;2.20;;
9775;SDS011;4927;52.472;13.108;2022-09-27T06:55:22;2.10;;;2.10;;
9775;SDS011;4927;52.472;13.108;2022-09-27T07:00:29;2.25;;;2.15;;
9775;SDS011;4927;52.472;13.108;2022-09-27T07:05:36;2.20;;;2.20;;
9775;SDS011;4927;52.472;13.108;2022-09-27T07:10:42;2.30;;;2.20;;
9775;SDS011;4927;52.472;13.108;2022-09-27T07:15:48;2.20;;;1.80;;
9775;SDS011;4927;52.472;13.108;2022-09-27T07:20:55;2.50;;;2.20;;
9775;SDS011;4927;52.472;13.108;2022-09-27T07:26:02;3.08;;;2.97;;
9775;SDS011;4927;52.472;13.108;2022-09-27T07:31:09;2.00;;;1.80;;
9775;SDS011;4927;52.472;13.108;2022-09-27T07:36:15;2.22;;;2.12;;
9775;SDS011;4927;52.472;13.108;2022-09-27T07:41:19;2.05;;;1.95;;
9775;SDS011;4927;52.472;13.108;2022-09-27T07:46:26;2.40;;;1.60;;
9775;SDS011;4927;52.472;13.108;2022-09-27T07:51:33;2.00;;;1.90;;
9775;SDS011;4927;52.472;13.108;2022-09-27T07:56:39;1.90;;;1.80;;
9775;SDS011;4927;52.472;13.108;2022-09-27T08:01:45;1.80;;;1.70;;
9775;SDS011;4927;52.472;13.108;2022-09-27T08:06:52;1.75;;;1.65;;
9775;SDS011;4927;52.472;13.108;2022-09-27T08:11:58;1.80;;;1.70;;
9775;SDS011;4927;52.472;13.108;2022-09-27T08:17:05;1.80;;;1.70;;
9775;SDS011;4927;52.472;13.108;2022-09-27T08:22:11;1.70;;;1.60;;
9775;SDS011;4927;52.472;13.108;2022-09-27T08:27:18;1.50;;;1.50;;
9775;SDS011;4927;52.472;13.108;2022-09-27T08:32:28;2.00;;;1.80;;
9775;SDS011;4927;52.472;13.108;2022-09-27T08:37:35;1.60;;;1.48;;
9775;SDS011;4927;52.472;13.108;2022-09-27T08:42:45;2.00;;;1.90;;
9775;SDS011;4927;52.472;13.108;2022-09-27T08:47:59;3.80;;;1.80;;
9775;SDS011;4927;52.472;13.108;2022-09-27T08:53:20;1.52;;;1.42;;
9775;SDS011;4927;52.472;13.108;2022-09-27T09:03:56;1.80;;;1.70;;
9775;SDS011;4927;52.472;13.108;2022-09-27T09:14:24;1.40;;;1.40;;
9775;SDS011;4927;52.472;13.108;2022-09-27T09:19:59;1.80;;;1.70;;
9775;SDS011;4927;52.472;13.108;2022-09-27T09:30:34;2.00;;;1.90;;
9775;SDS011;4927;52.472;13.108;2022-09-27T09:36:00;1.80;;;1.70;;
9775;SDS011;4927;52.472;13.108;2022-09-27T09:46:29;2.20;;;2.00;;
9775;SDS011;4927;52.472;13.108;2022-09-27T09:51:34;2.20;;;2.10;;
9775;SDS011;4927;52.472;13.108;2022-09-27T09:56:41;2.40;;;2.30;;
9775;SDS011;4927;52.472;13.108;2022-09-27T10:01:48;2.45;;;2.35;;
9775;SDS011;4927;52.472;13.108;2022-09-27T10:06:58;2.20;;;2.10;;
9775;SDS011;4927;52.472;13.108;2022-09-27T10:12:04;3.50;;;3.30;;
9775;SDS011;4927;52.472;13.108;2022-09-27T10:17:10;3.17;;;3.08;;
9775;SDS011;4927;52.472;13.108;2022-09-27T10:22:22;4.32;;;4.20;;
9775;SDS011;4927;52.472;13.108;2022-09-27T10:27:40;3.85;;;3.75;;
9775;SDS011;4927;52.472;13.108;2022-09-27T10:32:48;2.80;;;2.70;;
9775;SDS011;4927;52.472;13.108;2022-09-27T10:43:31;1.90;;;1.90;;
9775;SDS011;4927;52.472;13.108;2022-09-27T10:48:39;2.03;;;1.92;;
9775;SDS011;4927;52.472;13.108;2022-09-27T10:53:45;2.10;;;1.55;;
9775;SDS011;4927;52.472;13.108;2022-09-27T10:58:52;1.50;;;1.50;;
9775;SDS011;4927;52.472;13.108;2022-09-27T11:03:58;1.92;;;1.40;;
9775;SDS011;4927;52.472;13.108;2022-09-27T11:09:10;1.60;;;1.60;;
9775;SDS011;4927;52.472;13.108;2022-09-27T11:14:17;1.30;;;1.30;;
9775;SDS011;4927;52.472;13.108;2022-09-27T11:24:45;1.00;;;0.90;;
9775;SDS011;4927;52.472;13.108;2022-09-27T11:51:25;1.90;;;1.10;;
9775;SDS011;4927;52.472;13.108;2022-09-27T11:56:36;2.10;;;1.00;;
9775;SDS011;4927;52.472;13.108;2022-09-27T12:12:51;2.10;;;1.60;;
9775;SDS011;4927;52.472;13.108;2022-09-27T12:18:11;1.80;;;1.70;;
9775;SDS011;4927;52.472;13.108;2022-09-27T12:23:23;1.70;;;1.50;;
9775;SDS011;4927;52.472;13.108;2022-09-27T12:33:53;2.65;;;2.55;;
9775;SDS011;4927;52.472;13.108;2022-09-27T12:39:21;2.33;;;1.87;;
9775;SDS011;4927;52.472;13.108;2022-09-27T12:44:28;1.60;;;1.40;;
9775;SDS011;4927;52.472;13.108;2022-09-27T13:00:43;1.60;;;1.50;;
9775;SDS011;4927;52.472;13.108;2022-09-27T13:06:08;1.30;;;1.27;;
9775;SDS011;4927;52.472;13.108;2022-09-27T13:11:18;1.30;;;1.30;;
9775;SDS011;4927;52.472;13.108;2022-09-27T13:16:21;3.70;;;1.70;;
9775;SDS011;4927;52.472;13.108;2022-09-27T13:27:01;1.50;;;1.40;;
9775;SDS011;4927;52.472;13.108;2022-09-27T13:32:13;1.50;;;1.10;;
9775;SDS011;4927;52.472;13.108;2022-09-27T13:42:48;2.20;;;1.50;;
9775;SDS011;4927;52.472;13.108;2022-09-27T13:47:51;1.30;;;1.30;;
9775;SDS011;4927;52.472;13.108;2022-09-27T13:53:03;1.70;;;1.70;;
9775;SDS011;4927;52.472;13.108;2022-09-27T14:03:30;1.40;;;1.30;;
9775;SDS011;4927;52.472;13.108;2022-09-27T14:08:44;1.75;;;1.67;;
9775;SDS011;4927;52.472;13.108;2022-09-27T14:13:45;1.50;;;1.50;;
9775;SDS011;4927;52.472;13.108;2022-09-27T14:18:53;2.70;;;2.10;;
9775;SDS011;4927;52.472;13.108;2022-09-27T14:29:19;2.35;;;1.80;;
9775;SDS011;4927;52.472;13.108;2022-09-27T14:34:24;1.73;;;1.62;;
9775;SDS011;4927;52.472;13.108;2022-09-27T14:39:31;2.00;;;1.80;;
9775;SDS011;4927;52.472;13.108;2022-09-27T14:44:37;1.87;;;1.87;;
9775;SDS011;4927;52.472;13.108;2022-09-27T14:49:46;2.20;;;2.10;;
9775;SDS011;4927;52.472;13.108;2022-09-27T14:54:56;2.33;;;2.22;;
9775;SDS011;4927;52.472;13.108;2022-09-27T15:05:15;2.10;;;2.00;;
9775;SDS011;4927;52.472;13.108;2022-09-27T15:15:46;4.90;;;4.70;;
9775;SDS011;4927;52.472;13.108;2022-09-27T15:20:52;2.78;;;2.67;;
9775;SDS011;4927;52.472;13.108;2022-09-27T15:26:07;3.70;;;3.60;;
9775;SDS011;4927;52.472;13.108;2022-09-27T15:31:12;3.40;;;3.30;;
9775;SDS011;4927;52.472;13.108;2022-09-27T15:36:18;3.70;;;3.50;;
9775;SDS011;4927;52.472;13.108;2022-09-27T15:41:25;1.60;;;1.50;;
9775;SDS011;4927;52.472;13.108;2022-09-27T15:46:35;2.35;;;2.25;;
9775;SDS011;4927;52.472;13.108;2022-09-27T15:51:41;1.60;;;1.50;;
9775;SDS011;4927;52.472;13.108;2022-09-27T15:56:47;1.40;;;1.30;;
9775;SDS011;4927;52.472;13.108;2022-09-27T16:01:54;0.90;;;0.90;;
9775;SDS011;4927;52.472;13.108;2022-09-27T16:07:03;8.20;;;7.40;;
9775;SDS011;4927;52.472;13.108;2022-09-27T16:12:10;5.47;;;5.18;;
9775;SDS011;4927;52.472;13.108;2022-09-27T16:17:16;5.70;;;5.30;;
9775;SDS011;4927;52.472;13.108;2022-09-27T16:22:22;5.50;;;5.00;;
9775;SDS011;4927;52.472;13.108;2022-09-27T16:27:32;7.07;;;6.40;;
9775;SDS011;4927;52.472;13.108;2022-09-27T16:32:41;4.20;;;3.87;;
9775;SDS011;4927;52.472;13.108;2022-09-27T16:37:47;3.22;;;2.90;;
9775;SDS011;4927;52.472;13.108;2022-09-27T16:42:53;1.60;;;1.50;;
9775;SDS011;4927;52.472;13.108;2022-09-27T16:48:00;1.00;;;1.00;;
9775;SDS011;4927;52.472;13.108;2022-09-27T16:53:04;1.40;;;1.40;;
9775;SDS011;4927;52.472;13.108;2022-09-27T16:58:15;4.80;;;4.60;;
9775;SDS011;4927;52.472;13.108;2022-09-27T17:03:28;7.80;;;7.30;;
9775;SDS011;4927;52.472;13.108;2022-09-27T17:08:38;2.40;;;2.30;;
9775;SDS011;4927;52.472;13.108;2022-09-27T17:13:42;1.97;;;1.87;;
9775;SDS011;4927;52.472;13.108;2022-09-27T17:18:48;1.60;;;1.60;;
9775;SDS011;4927;52.472;13.108;2022-09-27T17:23:55;2.50;;;2.40;;
9775;SDS011;4927;52.472;13.108;2022-09-27T17:29:01;2.53;;;2.42;;
9775;SDS011;4927;52.472;13.108;2022-09-27T17:34:08;2.10;;;2.00;;
9775;SDS011;4927;52.472;13.108;2022-09-27T17:39:15;2.25;;;2.15;;
9775;SDS011;4927;52.472;13.108;2022-09-27T17:44:21;3.67;;;3.58;;
9775;SDS011;4927;52.472;13.108;2022-09-27T17:49:27;4.50;;;4.20;;
9775;SDS011;4927;52.472;13.108;2022-09-27T17:54:40;5.10;;;4.90;;
9775;SDS011;4927;52.472;13.108;2022-09-27T17:59:50;6.00;;;5.60;;
9775;SDS011;4927;52.472;13.108;2022-09-27T18:04:57;8.48;;;7.47;;
9775;SDS011;4927;52.472;13.108;2022-09-27T18:10:04;29.70;;;20.65;;
9775;SDS011;4927;52.472;13.108;2022-09-27T18:15:12;48.45;;;30.08;;
9775;SDS011;4927;52.472;13.108;2022-09-27T18:20:18;49.33;;;33.90;;
9775;SDS011;4927;52.472;13.108;2022-09-27T18:25:25;40.75;;;27.52;;
9775;SDS011;4927;52.472;13.108;2022-09-27T18:30:32;29.55;;;21.48;;
9775;SDS011;4927;52.472;13.108;2022-09-27T18:35:39;22.95;;;17.10;;
9775;SDS011;4927;52.472;13.108;2022-09-27T18:40:44;18.25;;;14.40;;
9775;SDS011;4927;52.472;13.108;2022-09-27T18:45:50;12.57;;;11.38;;
9775;SDS011;4927;52.472;13.108;2022-09-27T18:51:07;9.20;;;8.40;;
9775;SDS011;4927;52.472;13.108;2022-09-27T18:56:16;4.87;;;4.68;;
9775;SDS011;4927;52.472;13.108;2022-09-27T19:01:23;10.20;;;8.40;;
9775;SDS011;4927;52.472;13.108;2022-09-27T19:06:29;4.10;;;4.00;;
9775;SDS011;4927;52.472;13.108;2022-09-27T19:11:35;4.85;;;4.65;;
9775;SDS011;4927;52.472;13.108;2022-09-27T19:16:41;3.70;;;2.80;;
9775;SDS011;4927;52.472;13.108;2022-09-27T19:21:48;3.03;;;2.50;;
9775;SDS011;4927;52.472;13.108;2022-09-27T19:26:54;2.75;;;2.65;;
9775;SDS011;4927;52.472;13.108;2022-09-27T19:32:00;2.97;;;2.78;;
9775;SDS011;4927;52.472;13.108;2022-09-27T19:37:08;1.98;;;1.87;;
9775;SDS011;4927;52.472;13.108;2022-09-27T19:42:14;3.40;;;3.30;;
9775;SDS011;4927;52.472;13.108;2022-09-27T19:47:22;4.82;;;4.62;;
9775;SDS011;4927;52.472;13.108;2022-09-27T19:52:29;6.10;;;5.78;;
9775;SDS011;4927;52.472;13.108;2022-09-27T19:57:39;2.80;;;2.70;;
9775;SDS011;4927;52.472;13.108;2022-09-27T20:02:45;5.57;;;5.18;;
9775;SDS011;4927;52.472;13.108;2022-09-27T20:07:56;7.15;;;6.55;;
9775;SDS011;4927;52.472;13.108;2022-09-27T20:13:02;7.30;;;6.70;;
9775;SDS011;4927;52.472;13.108;2022-09-27T20:18:12;12.95;;;11.65;;
9775;SDS011;4927;52.472;13.108;2022-09-27T20:23:18;10.00;;;9.00;;
9775;SDS011;4927;52.472;13.108;2022-09-27T20:28:25;7.40;;;7.00;;
9775;SDS011;4927;52.472;13.108;2022-09-27T20:33:35;6.10;;;5.80;;
9775;SDS011;4927;52.472;13.108;2022-09-27T20:38:48;5.20;;;4.90;;
9775;SDS011;4927;52.472;13.108;2022-09-27T20:43:55;4.35;;;4.15;;
9775;SDS011;4927;52.472;13.108;2022-09-27T20:49:02;3.30;;;3.20;;
9775;SDS011;4927;52.472;13.108;2022-09-27T20:54:09;3.93;;;3.73;;
9775;SDS011;4927;52.472;13.108;2022-09-27T20:59:15;4.70;;;4.30;;
9775;SDS011;4927;52.472;13.108;2022-09-27T21:04:21;6.33;;;5.60;;
9775;SDS011;4927;52.472;13.108;2022-09-27T21:09:28;9.10;;;6.80;;
9775;SDS011;4927;52.472;13.108;2022-09-27T21:14:34;6.97;;;6.27;;
9775;SDS011;4927;52.472;13.108;2022-09-27T21:19:40;13.20;;;8.27;;
9775;SDS011;4927;52.472;13.108;2022-09-27T21:24:47;9.80;;;8.47;;
9775;SDS011;4927;52.472;13.108;2022-09-27T21:29:51;12.80;;;7.60;;
9775;SDS011;4927;52.472;13.108;2022-09-27T21:34:58;5.83;;;5.20;;
9775;SDS011;4927;52.472;13.108;2022-09-27T21:40:05;4.80;;;4.50;;
9775;SDS011;4927;52.472;13.108;2022-09-27T21:45:13;3.70;;;3.40;;
9775;SDS011;4927;52.472;13.108;2022-09-27T21:50:19;2.60;;;2.50;;
9775;SDS011;4927;52.472;13.108;2022-09-27T21:55:25;2.10;;;2.00;;
9775;SDS011;4927;52.472;13.108;2022-09-27T22:00:32;2.00;;;1.90;;
9775;SDS011;4927;52.472;13.108;2022-09-27T22:05:42;1.90;;;1.80;;
9775;SDS011;4927;52.472;13.108;2022-09-27T22:10:49;2.10;;;2.00;;
9775;SDS011;4927;52.472;13.108;2022-09-27T22:15:55;2.33;;;2.23;;
9775;SDS011;4927;52.472;13.108;2022-09-27T22:21:03;2.40;;;2.30;;
9775;SDS011;4927;52.472;13.108;2022-09-27T22:26:11;2.50;;;2.40;;
9775;SDS011;4927;52.472;13.108;2022-09-27T22:31:17;2.10;;;2.00;;
9775;SDS011;4927;52.472;13.108;2022-09-27T22:36:24;2.90;;;2.50;;
9775;SDS011;4927;52.472;13.108;2022-09-27T22:41:30;1.77;;;1.70;;
9775;SDS011;4927;52.472;13.108;2022-09-27T22:46:36;2.40;;;2.30;;
9775;SDS011;4927;52.472;13.108;2022-09-27T22:51:42;3.00;;;2.80;;
9775;SDS011;4927;52.472;13.108;2022-09-27T22:56:48;2.90;;;2.80;;
9775;SDS011;4927;52.472;13.108;2022-09-27T23:01:55;3.40;;;3.30;;
9775;SDS011;4927;52.472;13.108;2022-09-27T23:07:01;3.70;;;3.40;;
9775;SDS011;4927;52.472;13.108;2022-09-27T23:12:07;2.70;;;2.60;;
9775;SDS011;4927;52.472;13.108;2022-09-27T23:17:14;2.80;;;2.60;;
9775;SDS011;4927;52.472;13.108;2022-09-27T23:22:20;2.60;;;2.40;;
9775;SDS011;4927;52.472;13.108;2022-09-27T23:27:26;2.60;;;2.50;;
9775;SDS011;4927;52.472;13.108;2022-09-27T23:32:39;3.70;;;3.50;;
9775;SDS011;4927;52.472;13.108;2022-09-27T23:37:45;3.07;;;2.97;;
9775;SDS011;4927;52.472;13.108;2022-09-27T23:42:51;2.30;;;2.30;;
9775;SDS011;4927;52.472;13.108;2022-09-27T23:47:58;2.00;;;2.00;;
9775;SDS011;4927;52.472;13.108;2022-09-27T23:53:04;1.97;;;1.87;;
9775;SDS011;4927;52.472;13.108;2022-09-27T23:58:08;2.60;;;2.40;;
